Terminal Aerodrome Forecast
Issued by NWS

Home | Current Version | Previous Version | Graphics & Text | Print | Product List | Glossary On
Versions: 1 2 3 4 5 6 7 8 9 10 11 12 13 14 15
000
FTUS43 KBIS 251758 AAA
TAFMOT
TAF AMD
KMOT 251758Z 2518/2618 19019G28KT P6SM SCT200
     FM252200 25017G25KT P6SM BKN200
     FM260000 31015G23KT P6SM OVC200
     FM260100 32015G23KT P6SM VCSH SCT050 OVC100
     FM260500 32014KT P6SM SCT150
     FM261300 30009KT P6SM SCT200=

USA.gov is the U.S. government's official web portal to all federal, state and local government web resources and services.